sensor_id;sensor_type;location;lat;lon;timestamp;P1;durP1;ratioP1;P2;durP2;ratioP2
11171;SDS011;5642;50.830;12.082;2023-05-14T00:00:18;1.63;;;1.52;;
11171;SDS011;5642;50.830;12.082;2023-05-14T00:02:44;1.65;;;1.55;;
11171;SDS011;5642;50.830;12.082;2023-05-14T00:05:10;1.73;;;1.63;;
11171;SDS011;5642;50.830;12.082;2023-05-14T00:07:36;1.63;;;1.52;;
11171;SDS011;5642;50.830;12.082;2023-05-14T00:10:03;1.60;;;1.50;;
11171;SDS011;5642;50.830;12.082;2023-05-14T00:12:30;1.77;;;1.67;;
11171;SDS011;5642;50.830;12.082;2023-05-14T00:14:56;1.40;;;1.33;;
11171;SDS011;5642;50.830;12.082;2023-05-14T00:17:23;1.65;;;1.55;;
11171;SDS011;5642;50.830;12.082;2023-05-14T00:19:49;2.08;;;1.52;;
11171;SDS011;5642;50.830;12.082;2023-05-14T00:22:15;2.60;;;1.60;;
11171;SDS011;5642;50.830;12.082;2023-05-14T00:24:44;1.50;;;1.40;;
11171;SDS011;5642;50.830;12.082;2023-05-14T00:27:11;2.00;;;1.70;;
11171;SDS011;5642;50.830;12.082;2023-05-14T00:29:41;1.67;;;1.58;;
11171;SDS011;5642;50.830;12.082;2023-05-14T00:32:07;1.70;;;1.60;;
11171;SDS011;5642;50.830;12.082;2023-05-14T00:34:33;1.60;;;1.50;;
11171;SDS011;5642;50.830;12.082;2023-05-14T00:37:00;1.80;;;1.70;;
11171;SDS011;5642;50.830;12.082;2023-05-14T00:39:26;1.60;;;1.50;;
11171;SDS011;5642;50.830;12.082;2023-05-14T00:41:52;1.70;;;1.60;;
11171;SDS011;5642;50.830;12.082;2023-05-14T00:44:18;1.70;;;1.60;;
11171;SDS011;5642;50.830;12.082;2023-05-14T00:46:44;1.95;;;1.80;;
11171;SDS011;5642;50.830;12.082;2023-05-14T00:49:10;1.73;;;1.63;;
11171;SDS011;5642;50.830;12.082;2023-05-14T00:51:36;1.85;;;1.75;;
11171;SDS011;5642;50.830;12.082;2023-05-14T00:54:03;2.30;;;1.75;;
11171;SDS011;5642;50.830;12.082;2023-05-14T00:56:30;1.88;;;1.77;;
11171;SDS011;5642;50.830;12.082;2023-05-14T00:58:58;2.47;;;1.70;;
11171;SDS011;5642;50.830;12.082;2023-05-14T01:01:24;2.20;;;1.90;;
11171;SDS011;5642;50.830;12.082;2023-05-14T01:03:53;2.08;;;1.98;;
11171;SDS011;5642;50.830;12.082;2023-05-14T01:06:28;1.90;;;1.73;;
11171;SDS011;5642;50.830;12.082;2023-05-14T01:09:31;1.98;;;1.77;;
11171;SDS011;5642;50.830;12.082;2023-05-14T01:12:02;1.70;;;1.60;;
11171;SDS011;5642;50.830;12.082;2023-05-14T03:19:43;1.85;;;1.50;;
11171;SDS011;5642;50.830;12.082;2023-05-14T03:22:10;1.63;;;1.50;;
11171;SDS011;5642;50.830;12.082;2023-05-14T03:24:37;1.58;;;1.48;;
11171;SDS011;5642;50.830;12.082;2023-05-14T03:27:04;1.70;;;1.60;;
11171;SDS011;5642;50.830;12.082;2023-05-14T03:29:37;2.20;;;1.65;;
11171;SDS011;5642;50.830;12.082;2023-05-14T03:32:03;1.65;;;1.55;;
11171;SDS011;5642;50.830;12.082;2023-05-14T03:34:33;1.80;;;1.70;;
11171;SDS011;5642;50.830;12.082;2023-05-14T03:36:59;2.13;;;1.35;;
11171;SDS011;5642;50.830;12.082;2023-05-14T03:39:27;1.60;;;1.50;;
11171;SDS011;5642;50.830;12.082;2023-05-14T03:41:53;1.52;;;1.42;;
11171;SDS011;5642;50.830;12.082;2023-05-14T03:44:21;1.65;;;1.55;;
11171;SDS011;5642;50.830;12.082;2023-05-14T03:46:47;2.63;;;1.80;;
11171;SDS011;5642;50.830;12.082;2023-05-14T03:49:13;1.73;;;1.63;;
11171;SDS011;5642;50.830;12.082;2023-05-14T03:51:39;1.63;;;1.52;;
11171;SDS011;5642;50.830;12.082;2023-05-14T03:54:05;1.58;;;1.48;;
11171;SDS011;5642;50.830;12.082;2023-05-14T03:56:31;1.88;;;1.77;;
11171;SDS011;5642;50.830;12.082;2023-05-14T03:58:57;1.67;;;1.58;;
11171;SDS011;5642;50.830;12.082;2023-05-14T04:01:23;1.67;;;1.58;;
11171;SDS011;5642;50.830;12.082;2023-05-14T04:03:49;1.63;;;1.52;;
11171;SDS011;5642;50.830;12.082;2023-05-14T04:06:16;1.67;;;1.58;;
11171;SDS011;5642;50.830;12.082;2023-05-14T04:08:42;1.40;;;1.30;;
11171;SDS011;5642;50.830;12.082;2023-05-14T04:11:08;1.50;;;1.40;;
11171;SDS011;5642;50.830;12.082;2023-05-14T04:13:34;1.75;;;1.65;;
11171;SDS011;5642;50.830;12.082;2023-05-14T04:16:00;2.03;;;1.92;;
11171;SDS011;5642;50.830;12.082;2023-05-14T05:19:45;2.33;;;1.45;;
11171;SDS011;5642;50.830;12.082;2023-05-14T05:22:15;1.50;;;1.40;;
11171;SDS011;5642;50.830;12.082;2023-05-14T05:24:41;2.08;;;1.95;;
11171;SDS011;5642;50.830;12.082;2023-05-14T05:27:08;2.20;;;2.00;;
11171;SDS011;5642;50.830;12.082;2023-05-14T05:29:35;1.85;;;1.75;;
11171;SDS011;5642;50.830;12.082;2023-05-14T05:32:02;2.40;;;2.20;;
11171;SDS011;5642;50.830;12.082;2023-05-14T05:34:28;2.35;;;2.15;;
11171;SDS011;5642;50.830;12.082;2023-05-14T05:36:57;1.98;;;1.88;;
11171;SDS011;5642;50.830;12.082;2023-05-14T05:39:23;1.90;;;1.80;;
11171;SDS011;5642;50.830;12.082;2023-05-14T05:41:49;2.33;;;2.13;;
11171;SDS011;5642;50.830;12.082;2023-05-14T05:44:15;2.50;;;2.30;;
11171;SDS011;5642;50.830;12.082;2023-05-14T05:46:41;2.35;;;2.25;;
11171;SDS011;5642;50.830;12.082;2023-05-14T05:49:07;2.22;;;2.13;;
11171;SDS011;5642;50.830;12.082;2023-05-14T05:51:33;2.55;;;2.35;;
11171;SDS011;5642;50.830;12.082;2023-05-14T05:53:59;2.53;;;2.33;;
11171;SDS011;5642;50.830;12.082;2023-05-14T05:56:25;2.60;;;2.40;;
11171;SDS011;5642;50.830;12.082;2023-05-14T05:58:51;4.13;;;2.08;;
11171;SDS011;5642;50.830;12.082;2023-05-14T06:01:17;2.25;;;2.15;;
11171;SDS011;5642;50.830;12.082;2023-05-14T06:03:44;1.95;;;1.80;;
11171;SDS011;5642;50.830;12.082;2023-05-14T06:06:10;2.00;;;1.90;;
11171;SDS011;5642;50.830;12.082;2023-05-14T06:08:36;2.00;;;1.90;;
11171;SDS011;5642;50.830;12.082;2023-05-14T06:11:03;2.00;;;1.90;;
11171;SDS011;5642;50.830;12.082;2023-05-14T06:13:29;2.00;;;1.90;;
11171;SDS011;5642;50.830;12.082;2023-05-14T06:15:55;1.70;;;1.60;;
11171;SDS011;5642;50.830;12.082;2023-05-14T06:18:21;1.70;;;1.60;;
11171;SDS011;5642;50.830;12.082;2023-05-14T07:19:02;1.20;;;1.17;;
11171;SDS011;5642;50.830;12.082;2023-05-14T07:21:29;1.20;;;1.10;;
11171;SDS011;5642;50.830;12.082;2023-05-14T07:23:56;1.10;;;1.10;;
11171;SDS011;5642;50.830;12.082;2023-05-14T08:21:36;1.30;;;1.20;;
11171;SDS011;5642;50.830;12.082;2023-05-14T08:24:02;1.10;;;1.10;;
11171;SDS011;5642;50.830;12.082;2023-05-14T08:26:29;0.90;;;0.90;;
11171;SDS011;5642;50.830;12.082;2023-05-14T08:28:55;1.10;;;1.10;;
11171;SDS011;5642;50.830;12.082;2023-05-14T08:31:20;1.23;;;1.23;;
11171;SDS011;5642;50.830;12.082;2023-05-14T08:33:46;1.02;;;1.02;;
11171;SDS011;5642;50.830;12.082;2023-05-14T08:36:12;1.00;;;1.00;;
11171;SDS011;5642;50.830;12.082;2023-05-14T08:38:38;1.17;;;1.17;;
11171;SDS011;5642;50.830;12.082;2023-05-14T08:41:05;1.23;;;1.23;;
11171;SDS011;5642;50.830;12.082;2023-05-14T08:43:37;1.40;;;1.30;;
11171;SDS011;5642;50.830;12.082;2023-05-14T08:46:23;0.90;;;0.90;;
11171;SDS011;5642;50.830;12.082;2023-05-14T08:48:52;1.20;;;1.20;;
11171;SDS011;5642;50.830;12.082;2023-05-14T08:51:23;0.90;;;0.90;;
11171;SDS011;5642;50.830;12.082;2023-05-14T08:53:50;0.93;;;0.93;;
11171;SDS011;5642;50.830;12.082;2023-05-14T08:56:16;0.93;;;0.93;;
11171;SDS011;5642;50.830;12.082;2023-05-14T08:58:44;1.02;;;1.02;;
11171;SDS011;5642;50.830;12.082;2023-05-14T09:01:10;1.00;;;1.00;;
11171;SDS011;5642;50.830;12.082;2023-05-14T09:03:36;1.20;;;1.10;;
11171;SDS011;5642;50.830;12.082;2023-05-14T09:06:03;0.90;;;0.90;;
11171;SDS011;5642;50.830;12.082;2023-05-14T09:08:30;1.10;;;1.10;;
11171;SDS011;5642;50.830;12.082;2023-05-14T09:10:56;1.00;;;1.00;;
11171;SDS011;5642;50.830;12.082;2023-05-14T09:13:22;1.00;;;1.00;;
11171;SDS011;5642;50.830;12.082;2023-05-14T09:15:54;1.30;;;1.30;;
11171;SDS011;5642;50.830;12.082;2023-05-14T09:18:21;1.10;;;1.10;;
11171;SDS011;5642;50.830;12.082;2023-05-14T09:20:48;1.00;;;1.00;;
11171;SDS011;5642;50.830;12.082;2023-05-14T09:23:14;1.00;;;1.00;;
11171;SDS011;5642;50.830;12.082;2023-05-14T09:25:40;0.93;;;0.93;;
11171;SDS011;5642;50.830;12.082;2023-05-14T09:28:07;1.08;;;1.08;;
11171;SDS011;5642;50.830;12.082;2023-05-14T09:30:34;0.90;;;0.90;;
11171;SDS011;5642;50.830;12.082;2023-05-14T09:33:01;1.10;;;1.10;;
11171;SDS011;5642;50.830;12.082;2023-05-14T09:35:28;1.10;;;1.10;;
11171;SDS011;5642;50.830;12.082;2023-05-14T09:37:54;1.00;;;1.00;;
11171;SDS011;5642;50.830;12.082;2023-05-14T09:40:21;1.10;;;1.10;;
11171;SDS011;5642;50.830;12.082;2023-05-14T09:42:48;1.13;;;1.13;;
11171;SDS011;5642;50.830;12.082;2023-05-14T09:45:15;1.05;;;1.05;;
11171;SDS011;5642;50.830;12.082;2023-05-14T09:47:41;1.15;;;1.08;;
11171;SDS011;5642;50.830;12.082;2023-05-14T09:50:07;1.00;;;1.00;;
11171;SDS011;5642;50.830;12.082;2023-05-14T09:52:34;1.45;;;1.35;;
11171;SDS011;5642;50.830;12.082;2023-05-14T09:55:00;1.38;;;1.27;;
11171;SDS011;5642;50.830;12.082;2023-05-14T09:57:26;1.02;;;1.02;;
11171;SDS011;5642;50.830;12.082;2023-05-14T09:59:52;1.23;;;1.23;;
11171;SDS011;5642;50.830;12.082;2023-05-14T10:02:23;1.45;;;1.13;;
11171;SDS011;5642;50.830;12.082;2023-05-14T10:04:51;1.20;;;1.17;;
11171;SDS011;5642;50.830;12.082;2023-05-14T10:07:22;1.15;;;1.15;;
11171;SDS011;5642;50.830;12.082;2023-05-14T10:09:56;1.10;;;1.10;;
11171;SDS011;5642;50.830;12.082;2023-05-14T10:12:27;0.90;;;0.90;;
11171;SDS011;5642;50.830;12.082;2023-05-14T10:14:58;1.20;;;1.20;;
11171;SDS011;5642;50.830;12.082;2023-05-14T10:17:29;1.00;;;1.00;;
11171;SDS011;5642;50.830;12.082;2023-05-14T10:19:57;1.17;;;1.17;;
11171;SDS011;5642;50.830;12.082;2023-05-14T11:20:50;1.02;;;0.88;;
11171;SDS011;5642;50.830;12.082;2023-05-14T11:23:17;1.10;;;1.10;;
11171;SDS011;5642;50.830;12.082;2023-05-14T11:25:43;1.40;;;1.30;;
11171;SDS011;5642;50.830;12.082;2023-05-14T11:28:09;1.08;;;1.08;;
11171;SDS011;5642;50.830;12.082;2023-05-14T11:30:36;1.10;;;1.10;;
11171;SDS011;5642;50.830;12.082;2023-05-14T11:33:02;1.02;;;1.02;;
11171;SDS011;5642;50.830;12.082;2023-05-14T11:35:31;1.13;;;1.13;;
11171;SDS011;5642;50.830;12.082;2023-05-14T11:37:57;1.00;;;1.00;;
11171;SDS011;5642;50.830;12.082;2023-05-14T11:40:24;1.00;;;1.00;;
11171;SDS011;5642;50.830;12.082;2023-05-14T11:42:50;1.23;;;1.23;;
11171;SDS011;5642;50.830;12.082;2023-05-14T11:45:27;1.60;;;1.50;;
11171;SDS011;5642;50.830;12.082;2023-05-14T11:47:54;1.33;;;1.30;;
11171;SDS011;5642;50.830;12.082;2023-05-14T11:50:21;1.20;;;1.20;;
11171;SDS011;5642;50.830;12.082;2023-05-14T11:52:47;1.20;;;1.20;;
11171;SDS011;5642;50.830;12.082;2023-05-14T11:55:15;1.13;;;1.13;;
11171;SDS011;5642;50.830;12.082;2023-05-14T11:57:42;1.40;;;1.30;;
11171;SDS011;5642;50.830;12.082;2023-05-14T12:00:08;1.10;;;1.10;;
11171;SDS011;5642;50.830;12.082;2023-05-14T12:02:41;1.23;;;1.23;;
11171;SDS011;5642;50.830;12.082;2023-05-14T12:05:07;1.33;;;1.30;;
11171;SDS011;5642;50.830;12.082;2023-05-14T12:07:36;1.35;;;1.30;;
11171;SDS011;5642;50.830;12.082;2023-05-14T12:10:02;1.38;;;1.30;;
11171;SDS011;5642;50.830;12.082;2023-05-14T12:12:32;1.17;;;1.17;;
11171;SDS011;5642;50.830;12.082;2023-05-14T12:15:00;1.30;;;1.27;;
11171;SDS011;5642;50.830;12.082;2023-05-14T12:17:26;1.30;;;1.20;;
11171;SDS011;5642;50.830;12.082;2023-05-14T12:19:52;1.10;;;1.10;;
11171;SDS011;5642;50.830;12.082;2023-05-14T13:23:25;2.95;;;1.45;;
11171;SDS011;5642;50.830;12.082;2023-05-14T13:25:51;1.50;;;1.40;;
11171;SDS011;5642;50.830;12.082;2023-05-14T13:28:18;1.50;;;1.40;;
11171;SDS011;5642;50.830;12.082;2023-05-14T13:31:01;1.52;;;1.42;;
11171;SDS011;5642;50.830;12.082;2023-05-14T13:33:30;1.40;;;1.30;;
11171;SDS011;5642;50.830;12.082;2023-05-14T13:35:56;1.33;;;1.20;;
11171;SDS011;5642;50.830;12.082;2023-05-14T13:38:22;2.22;;;1.30;;
11171;SDS011;5642;50.830;12.082;2023-05-14T13:40:48;1.25;;;1.15;;
11171;SDS011;5642;50.830;12.082;2023-05-14T13:43:14;1.27;;;1.27;;
11171;SDS011;5642;50.830;12.082;2023-05-14T13:45:41;1.20;;;1.10;;
11171;SDS011;5642;50.830;12.082;2023-05-14T13:48:07;1.10;;;1.10;;
11171;SDS011;5642;50.830;12.082;2023-05-14T13:50:33;1.50;;;1.40;;
11171;SDS011;5642;50.830;12.082;2023-05-14T13:52:59;1.73;;;1.30;;
11171;SDS011;5642;50.830;12.082;2023-05-14T13:55:29;1.50;;;1.40;;
11171;SDS011;5642;50.830;12.082;2023-05-14T13:57:55;1.50;;;1.40;;
11171;SDS011;5642;50.830;12.082;2023-05-14T14:00:21;1.20;;;1.20;;
11171;SDS011;5642;50.830;12.082;2023-05-14T14:02:47;1.60;;;1.50;;
11171;SDS011;5642;50.830;12.082;2023-05-14T14:05:14;1.30;;;1.13;;
11171;SDS011;5642;50.830;12.082;2023-05-14T14:07:40;1.42;;;1.33;;
11171;SDS011;5642;50.830;12.082;2023-05-14T14:10:06;1.40;;;1.30;;
11171;SDS011;5642;50.830;12.082;2023-05-14T14:12:34;1.17;;;1.10;;
11171;SDS011;5642;50.830;12.082;2023-05-14T14:15:01;1.13;;;1.13;;
11171;SDS011;5642;50.830;12.082;2023-05-14T14:17:28;1.55;;;1.45;;
11171;SDS011;5642;50.830;12.082;2023-05-14T14:19:54;1.30;;;1.30;;
11171;SDS011;5642;50.830;12.082;2023-05-14T14:22:23;1.40;;;1.30;;
11171;SDS011;5642;50.830;12.082;2023-05-14T14:24:49;1.50;;;1.40;;
11171;SDS011;5642;50.830;12.082;2023-05-14T14:27:17;1.20;;;1.20;;
11171;SDS011;5642;50.830;12.082;2023-05-14T14:29:43;1.30;;;1.23;;
11171;SDS011;5642;50.830;12.082;2023-05-14T14:32:09;1.17;;;1.17;;
11171;SDS011;5642;50.830;12.082;2023-05-14T14:34:36;1.35;;;1.27;;
11171;SDS011;5642;50.830;12.082;2023-05-14T14:37:03;1.50;;;1.40;;
11171;SDS011;5642;50.830;12.082;2023-05-14T14:39:29;1.42;;;1.35;;
11171;SDS011;5642;50.830;12.082;2023-05-14T14:41:55;1.50;;;1.40;;
11171;SDS011;5642;50.830;12.082;2023-05-14T14:44:21;1.48;;;1.38;;
11171;SDS011;5642;50.830;12.082;2023-05-14T14:46:47;1.10;;;1.10;;
11171;SDS011;5642;50.830;12.082;2023-05-14T14:49:13;1.45;;;1.30;;
11171;SDS011;5642;50.830;12.082;2023-05-14T14:51:39;1.25;;;1.15;;
11171;SDS011;5642;50.830;12.082;2023-05-14T14:54:05;1.50;;;1.40;;
11171;SDS011;5642;50.830;12.082;2023-05-14T14:56:32;1.15;;;1.15;;
11171;SDS011;5642;50.830;12.082;2023-05-14T14:58:58;1.45;;;1.35;;
11171;SDS011;5642;50.830;12.082;2023-05-14T15:01:25;1.58;;;1.48;;
11171;SDS011;5642;50.830;12.082;2023-05-14T15:03:52;1.60;;;1.50;;
11171;SDS011;5642;50.830;12.082;2023-05-14T15:06:18;1.20;;;1.15;;
11171;SDS011;5642;50.830;12.082;2023-05-14T15:08:44;1.23;;;1.23;;
11171;SDS011;5642;50.830;12.082;2023-05-14T15:11:10;1.35;;;1.30;;
11171;SDS011;5642;50.830;12.082;2023-05-14T15:13:37;1.55;;;1.38;;
11171;SDS011;5642;50.830;12.082;2023-05-14T15:16:04;1.30;;;1.20;;
11171;SDS011;5642;50.830;12.082;2023-05-14T15:18:31;1.20;;;1.20;;
11171;SDS011;5642;50.830;12.082;2023-05-14T15:20:58;1.40;;;1.30;;
11171;SDS011;5642;50.830;12.082;2023-05-14T19:23:25;1.40;;;1.30;;
11171;SDS011;5642;50.830;12.082;2023-05-14T19:25:51;1.70;;;1.60;;
11171;SDS011;5642;50.830;12.082;2023-05-14T19:28:17;1.60;;;1.50;;
11171;SDS011;5642;50.830;12.082;2023-05-14T19:30:44;1.48;;;1.38;;
11171;SDS011;5642;50.830;12.082;2023-05-14T19:33:10;1.60;;;1.42;;
11171;SDS011;5642;50.830;12.082;2023-05-14T19:35:36;1.63;;;1.50;;
11171;SDS011;5642;50.830;12.082;2023-05-14T19:38:02;1.58;;;1.48;;
11171;SDS011;5642;50.830;12.082;2023-05-14T19:40:28;1.50;;;1.40;;
11171;SDS011;5642;50.830;12.082;2023-05-14T19:42:54;1.73;;;1.63;;
11171;SDS011;5642;50.830;12.082;2023-05-14T19:45:24;2.00;;;1.50;;
11171;SDS011;5642;50.830;12.082;2023-05-14T19:48:01;1.50;;;1.40;;
11171;SDS011;5642;50.830;12.082;2023-05-14T19:50:27;1.70;;;1.60;;
11171;SDS011;5642;50.830;12.082;2023-05-14T19:52:53;1.75;;;1.65;;
11171;SDS011;5642;50.830;12.082;2023-05-14T19:55:19;2.05;;;1.77;;
11171;SDS011;5642;50.830;12.082;2023-05-14T19:57:45;2.08;;;1.98;;
11171;SDS011;5642;50.830;12.082;2023-05-14T20:00:15;1.60;;;1.50;;
11171;SDS011;5642;50.830;12.082;2023-05-14T20:02:41;2.05;;;1.95;;
11171;SDS011;5642;50.830;12.082;2023-05-14T20:05:08;2.00;;;1.90;;
11171;SDS011;5642;50.830;12.082;2023-05-14T20:07:35;2.60;;;1.75;;
11171;SDS011;5642;50.830;12.082;2023-05-14T20:10:02;2.20;;;2.00;;
11171;SDS011;5642;50.830;12.082;2023-05-14T20:12:28;2.30;;;2.10;;
11171;SDS011;5642;50.830;12.082;2023-05-14T20:14:54;1.80;;;1.70;;
11171;SDS011;5642;50.830;12.082;2023-05-14T20:17:20;1.80;;;1.70;;
11171;SDS011;5642;50.830;12.082;2023-05-14T20:19:46;1.83;;;1.73;;
11171;SDS011;5642;50.830;12.082;2023-05-14T20:22:12;1.98;;;1.80;;
11171;SDS011;5642;50.830;12.082;2023-05-14T21:22:57;1.52;;;1.42;;
11171;SDS011;5642;50.830;12.082;2023-05-14T21:25:24;2.13;;;1.65;;
11171;SDS011;5642;50.830;12.082;2023-05-14T21:27:51;1.60;;;1.50;;
11171;SDS011;5642;50.830;12.082;2023-05-14T21:30:17;1.63;;;1.52;;
11171;SDS011;5642;50.830;12.082;2023-05-14T21:32:43;1.90;;;1.80;;
11171;SDS011;5642;50.830;12.082;2023-05-14T21:35:09;1.95;;;1.80;;
11171;SDS011;5642;50.830;12.082;2023-05-14T21:37:36;1.85;;;1.75;;
11171;SDS011;5642;50.830;12.082;2023-05-14T21:40:05;1.70;;;1.60;;
11171;SDS011;5642;50.830;12.082;2023-05-14T21:42:34;2.50;;;1.80;;
11171;SDS011;5642;50.830;12.082;2023-05-14T21:45:00;2.10;;;1.90;;
11171;SDS011;5642;50.830;12.082;2023-05-14T21:47:29;1.65;;;1.55;;
11171;SDS011;5642;50.830;12.082;2023-05-14T21:49:55;1.83;;;1.73;;
11171;SDS011;5642;50.830;12.082;2023-05-14T21:52:21;1.80;;;1.70;;
11171;SDS011;5642;50.830;12.082;2023-05-14T21:54:47;1.90;;;1.80;;
11171;SDS011;5642;50.830;12.082;2023-05-14T21:57:13;1.50;;;1.40;;
11171;SDS011;5642;50.830;12.082;2023-05-14T21:59:40;2.55;;;1.60;;
11171;SDS011;5642;50.830;12.082;2023-05-14T22:02:06;2.33;;;1.70;;
11171;SDS011;5642;50.830;12.082;2023-05-14T22:04:32;1.70;;;1.60;;
11171;SDS011;5642;50.830;12.082;2023-05-14T22:06:59;2.00;;;1.90;;
11171;SDS011;5642;50.830;12.082;2023-05-14T22:09:25;1.70;;;1.60;;
11171;SDS011;5642;50.830;12.082;2023-05-14T22:11:51;1.77;;;1.67;;
11171;SDS011;5642;50.830;12.082;2023-05-14T22:14:17;1.90;;;1.80;;
11171;SDS011;5642;50.830;12.082;2023-05-14T22:16:43;2.53;;;1.80;;
11171;SDS011;5642;50.830;12.082;2023-05-14T22:19:09;1.80;;;1.70;;
11171;SDS011;5642;50.830;12.082;2023-05-14T22:21:36;1.70;;;1.60;;
11171;SDS011;5642;50.830;12.082;2023-05-14T22:24:02;1.70;;;1.60;;
11171;SDS011;5642;50.830;12.082;2023-05-14T22:26:28;1.80;;;1.70;;
11171;SDS011;5642;50.830;12.082;2023-05-14T22:28:54;1.90;;;1.80;;
11171;SDS011;5642;50.830;12.082;2023-05-14T22:31:22;1.60;;;1.50;;
11171;SDS011;5642;50.830;12.082;2023-05-14T22:33:48;1.75;;;1.65;;
11171;SDS011;5642;50.830;12.082;2023-05-14T22:36:14;1.85;;;1.75;;
11171;SDS011;5642;50.830;12.082;2023-05-14T22:38:40;1.60;;;1.50;;
11171;SDS011;5642;50.830;12.082;2023-05-14T22:41:09;1.85;;;1.70;;
11171;SDS011;5642;50.830;12.082;2023-05-14T22:43:38;1.70;;;1.60;;
11171;SDS011;5642;50.830;12.082;2023-05-14T22:46:04;1.60;;;1.50;;
11171;SDS011;5642;50.830;12.082;2023-05-14T22:48:30;1.60;;;1.50;;
11171;SDS011;5642;50.830;12.082;2023-05-14T22:50:56;1.60;;;1.50;;
11171;SDS011;5642;50.830;12.082;2023-05-14T22:53:22;1.73;;;1.63;;
11171;SDS011;5642;50.830;12.082;2023-05-14T22:55:48;1.55;;;1.45;;
11171;SDS011;5642;50.830;12.082;2023-05-14T22:58:14;1.67;;;1.58;;
11171;SDS011;5642;50.830;12.082;2023-05-14T23:00:40;1.65;;;1.55;;
11171;SDS011;5642;50.830;12.082;2023-05-14T23:03:06;1.75;;;1.60;;
11171;SDS011;5642;50.830;12.082;2023-05-14T23:05:32;1.70;;;1.60;;
11171;SDS011;5642;50.830;12.082;2023-05-14T23:07:58;1.65;;;1.55;;
11171;SDS011;5642;50.830;12.082;2023-05-14T23:10:24;1.70;;;1.60;;
11171;SDS011;5642;50.830;12.082;2023-05-14T23:12:51;1.70;;;1.60;;
11171;SDS011;5642;50.830;12.082;2023-05-14T23:15:17;1.45;;;1.35;;
11171;SDS011;5642;50.830;12.082;2023-05-14T23:17:43;1.70;;;1.60;;
11171;SDS011;5642;50.830;12.082;2023-05-14T23:20:09;1.80;;;1.67;;
11171;SDS011;5642;50.830;12.082;2023-05-14T23:22:37;1.83;;;1.73;;
